createdAt,value
2022-09-23T00:00:40.044Z,22.44
2022-09-23T00:03:07.984Z,22.43
2022-09-23T00:05:36.011Z,22.43
2022-09-23T00:08:03.928Z,22.42
2022-09-23T00:10:32.217Z,22.43
2022-09-23T00:13:00.233Z,22.44
2022-09-23T00:15:30.062Z,22.44
2022-09-23T00:17:59.294Z,22.45
2022-09-23T00:20:29.532Z,22.45
2022-09-23T00:22:57.802Z,22.48
2022-09-23T00:25:26.005Z,22.49
2022-09-23T00:27:53.920Z,22.51
2022-09-23T00:30:23.592Z,22.52
2022-09-23T00:32:52.904Z,22.53
2022-09-23T00:35:22.339Z,22.53
2022-09-23T00:37:50.307Z,22.55
2022-09-23T00:40:18.401Z,22.55
2022-09-23T00:42:49.812Z,22.57
2022-09-23T00:45:20.797Z,22.59
2022-09-23T00:47:49.692Z,22.59
2022-09-23T00:50:24.419Z,22.61
2022-09-23T00:52:52.111Z,22.61
2022-09-23T00:55:22.171Z,22.62
2022-09-23T00:57:50.061Z,22.63
2022-09-23T01:00:18.015Z,22.63
2022-09-23T01:02:46.695Z,22.65
2022-09-23T01:05:14.752Z,22.66
2022-09-23T01:07:44.088Z,22.66
2022-09-23T01:10:13.525Z,22.67
2022-09-23T01:12:53.232Z,22.67
2022-09-23T01:15:23.078Z,22.68
2022-09-23T01:17:53.248Z,22.68
2022-09-23T01:20:32.814Z,22.69
2022-09-23T01:23:09.077Z,22.69
2022-09-23T01:25:47.215Z,22.69
2022-09-23T01:28:37.876Z,22.72
2022-09-23T01:31:07.781Z,22.70
2022-09-23T01:33:39.457Z,22.72
2022-09-23T01:36:11.780Z,22.71
2022-09-23T01:38:43.254Z,22.72
2022-09-23T01:41:17.676Z,22.72
2022-09-23T01:43:49.067Z,22.72
2022-09-23T01:46:19.897Z,22.74
2022-09-23T01:48:51.145Z,22.75
2022-09-23T01:51:21.874Z,22.75
2022-09-23T01:53:52.201Z,22.75
2022-09-23T01:56:22.215Z,22.76
2022-09-23T01:58:52.211Z,22.76
2022-09-23T02:01:23.901Z,22.77
2022-09-23T02:03:53.251Z,22.78
2022-09-23T02:06:22.941Z,22.78
2022-09-23T02:08:53.271Z,22.79
2022-09-23T02:11:21.512Z,22.79
2022-09-23T02:13:52.664Z,22.78
2022-09-23T02:16:26.155Z,22.79
2022-09-23T02:18:56.115Z,22.78
2022-09-23T02:21:25.134Z,22.76
2022-09-23T02:23:54.060Z,22.75
2022-09-23T02:26:23.325Z,22.73
2022-09-23T02:28:56.005Z,22.70
2022-09-23T02:31:30.906Z,22.69
2022-09-23T02:33:59.343Z,22.66
2022-09-23T02:36:29.668Z,22.67
2022-09-23T02:38:59.635Z,22.67
2022-09-23T02:41:29.603Z,22.68
2022-09-23T02:43:59.676Z,22.68
2022-09-23T02:46:30.094Z,22.67
2022-09-23T02:49:00.708Z,22.68
2022-09-23T02:51:29.087Z,22.69
2022-09-23T02:53:57.434Z,22.69
2022-09-23T02:56:25.340Z,22.70
2022-09-23T02:58:54.152Z,22.70
2022-09-23T03:01:26.770Z,22.70
2022-09-23T03:03:57.199Z,22.71
2022-09-23T03:06:28.654Z,22.71
2022-09-23T03:08:59.498Z,22.72
2022-09-23T03:11:27.472Z,22.73
2022-09-23T03:14:05.151Z,22.75
2022-09-23T03:16:35.616Z,22.74
2022-09-23T03:19:13.049Z,22.75
2022-09-23T03:21:43.117Z,22.74
2022-09-23T03:24:11.073Z,22.76
2022-09-23T03:26:39.270Z,22.75
2022-09-23T03:29:09.722Z,22.75
2022-09-23T03:31:37.760Z,22.75
2022-09-23T03:34:09.808Z,22.76
2022-09-23T03:36:53.855Z,22.75
2022-09-23T03:39:27.811Z,22.76
2022-09-23T03:41:57.157Z,22.76
2022-09-23T03:44:25.083Z,22.76
2022-09-23T03:46:52.985Z,22.77
2022-09-23T03:49:27.407Z,22.78
2022-09-23T03:51:55.445Z,22.78
2022-09-23T03:54:23.586Z,22.77
2022-09-23T03:56:51.986Z,22.77
2022-09-23T03:59:20.597Z,22.78
2022-09-23T04:01:48.634Z,22.78
2022-09-23T04:04:16.607Z,22.79
2022-09-23T04:06:45.851Z,22.79
2022-09-23T04:09:13.894Z,22.79
2022-09-23T04:11:41.835Z,22.79
2022-09-23T04:14:12.173Z,22.79
2022-09-23T04:16:40.290Z,22.78
2022-09-23T04:19:11.465Z,22.79
2022-09-23T04:21:39.846Z,22.78
2022-09-23T04:24:09.330Z,22.79
2022-09-23T04:26:38.120Z,22.80
2022-09-23T04:29:06.247Z,22.80
2022-09-23T04:31:34.516Z,22.81
2022-09-23T04:34:02.521Z,22.80
2022-09-23T04:36:30.534Z,22.80
2022-09-23T04:38:59.789Z,22.80
2022-09-23T04:41:29.656Z,22.81
2022-09-23T04:43:58.219Z,22.81
2022-09-23T04:46:26.256Z,22.82
2022-09-23T04:48:54.167Z,22.82
2022-09-23T04:51:23.057Z,22.83
2022-09-23T04:53:51.460Z,22.83
2022-09-23T04:56:20.426Z,22.83
2022-09-23T04:58:49.849Z,22.85
2022-09-23T05:01:18.688Z,22.86
2022-09-23T05:03:47.237Z,22.86
2022-09-23T05:06:15.641Z,22.87
2022-09-23T05:08:43.689Z,22.89
2022-09-23T05:11:11.665Z,22.88
2022-09-23T05:13:49.643Z,22.89
2022-09-23T05:16:17.718Z,22.89
2022-09-23T05:18:45.870Z,22.90
2022-09-23T05:21:14.679Z,22.90
2022-09-23T05:23:42.817Z,22.89
2022-09-23T05:26:12.470Z,22.89
2022-09-23T05:28:40.855Z,22.85
2022-09-23T05:31:17.121Z,22.84
2022-09-23T05:33:48.766Z,22.82
2022-09-23T05:36:17.876Z,22.81
2022-09-23T05:38:48.635Z,22.80
2022-09-23T05:41:17.304Z,22.80
2022-09-23T05:43:45.390Z,22.80
2022-09-23T05:46:15.393Z,22.80
2022-09-23T05:48:43.927Z,22.80
2022-09-23T05:51:14.280Z,22.78
2022-09-23T05:53:44.879Z,22.77
2022-09-23T05:56:14.817Z,22.77
2022-09-23T05:58:42.762Z,22.77
2022-09-23T06:01:12.184Z,22.77
2022-09-23T06:03:41.902Z,22.78
2022-09-23T06:06:14.724Z,22.78
2022-09-23T06:08:42.749Z,22.79
2022-09-23T06:11:11.763Z,22.79
2022-09-23T06:13:39.710Z,22.79
2022-09-23T06:16:08.155Z,22.79
2022-09-23T06:18:36.299Z,22.81
2022-09-23T06:21:05.876Z,22.79
2022-09-23T06:23:36.135Z,22.81
2022-09-23T06:26:05.702Z,22.80
2022-09-23T06:28:34.166Z,22.80
2022-09-23T06:31:03.249Z,22.83
2022-09-23T06:33:36.721Z,22.83
2022-09-23T06:36:07.266Z,22.82
2022-09-23T06:38:35.241Z,22.83
2022-09-23T06:41:03.477Z,22.83
2022-09-23T06:43:31.496Z,22.84
2022-09-23T06:46:01.819Z,22.86
2022-09-23T06:48:29.831Z,22.87
2022-09-23T06:51:02.391Z,22.89
2022-09-23T06:53:32.243Z,22.89
2022-09-23T06:56:00.598Z,22.90
2022-09-23T06:58:28.840Z,22.93
2022-09-23T07:01:01.685Z,22.93
2022-09-23T07:03:29.661Z,22.95
2022-09-23T07:05:57.896Z,22.95
2022-09-23T07:08:27.139Z,22.98
2022-09-23T07:10:56.611Z,22.98
2022-09-23T07:13:24.729Z,22.99
2022-09-23T07:15:52.791Z,22.99
2022-09-23T07:18:20.871Z,23.02
2022-09-23T07:20:48.756Z,23.02
2022-09-23T07:23:17.630Z,23.03
2022-09-23T07:25:46.782Z,23.04
2022-09-23T07:28:16.140Z,23.07
2022-09-23T07:30:56.157Z,23.07
2022-09-23T07:33:33.355Z,23.08
2022-09-23T07:36:05.075Z,23.07
2022-09-23T07:38:33.016Z,23.08
2022-09-23T07:41:05.011Z,23.07
2022-09-23T07:43:34.366Z,23.09
2022-09-23T07:46:03.390Z,23.10
2022-09-23T07:48:34.331Z,23.13
2022-09-23T07:51:06.909Z,23.14
2022-09-23T07:53:34.936Z,23.17
2022-09-23T07:56:04.598Z,23.20
2022-09-23T07:58:33.962Z,23.22
2022-09-23T08:01:06.014Z,23.21
2022-09-23T08:03:33.963Z,23.23
2022-09-23T08:06:06.651Z,23.25
2022-09-23T08:08:35.621Z,23.27
2022-09-23T08:11:04.686Z,23.29
2022-09-23T08:13:34.591Z,23.30
2022-09-23T08:16:02.998Z,23.32
2022-09-23T08:18:31.149Z,23.33
2022-09-23T08:20:59.081Z,23.34
2022-09-23T08:23:27.304Z,23.36
2022-09-23T08:25:59.686Z,23.37
2022-09-23T08:28:35.196Z,23.39
2022-09-23T08:31:04.620Z,23.40
2022-09-23T08:33:32.625Z,23.42
2022-09-23T08:36:00.983Z,23.42
2022-09-23T08:38:29.073Z,23.44
2022-09-23T08:41:02.762Z,23.45
2022-09-23T08:43:31.078Z,23.46
2022-09-23T08:46:00.993Z,23.47
2022-09-23T08:48:30.838Z,23.47
2022-09-23T08:51:02.574Z,23.51
2022-09-23T08:53:31.288Z,23.51
2022-09-23T08:55:59.985Z,23.50
2022-09-23T08:58:43.924Z,23.51
2022-09-23T09:01:15.973Z,23.51
2022-09-23T09:03:47.509Z,23.55
2022-09-23T09:06:19.102Z,23.56
2022-09-23T09:08:48.451Z,23.57
2022-09-23T09:11:16.581Z,23.59
2022-09-23T09:13:48.947Z,23.60
2022-09-23T09:16:48.348Z,23.60
2022-09-23T09:19:19.365Z,23.61
2022-09-23T09:21:47.883Z,23.62
2022-09-23T09:24:18.687Z,23.61
2022-09-23T09:26:46.569Z,23.61
2022-09-23T09:29:34.414Z,23.63
2022-09-23T09:32:03.663Z,23.65
2022-09-23T09:34:35.664Z,23.68
2022-09-23T09:37:07.188Z,23.69
2022-09-23T09:39:35.672Z,23.69
2022-09-23T09:42:03.706Z,23.68
2022-09-23T09:44:37.126Z,23.68
2022-09-23T09:47:21.071Z,23.70
2022-09-23T09:49:52.680Z,23.69
2022-09-23T09:52:22.740Z,23.72
2022-09-23T09:54:51.937Z,23.68
2022-09-23T09:57:33.570Z,23.66
2022-09-23T10:00:19.065Z,23.66
2022-09-23T10:02:47.002Z,23.66
2022-09-23T10:05:27.110Z,23.70
2022-09-23T10:07:55.281Z,23.72
2022-09-23T10:10:33.230Z,23.75
2022-09-23T10:13:02.526Z,23.78
2022-09-23T10:15:33.285Z,23.82
2022-09-23T10:18:02.069Z,23.84
2022-09-23T10:20:38.246Z,23.87
2022-09-23T10:23:09.877Z,23.89
2022-09-23T10:25:37.886Z,23.94
2022-09-23T10:28:34.125Z,23.96
2022-09-23T10:31:06.004Z,23.98
2022-09-23T10:33:33.892Z,23.96
2022-09-23T10:36:03.524Z,23.93
2022-09-23T10:38:31.415Z,23.98
2022-09-23T10:41:16.693Z,24.02
2022-09-23T10:44:05.959Z,24.10
2022-09-23T10:46:46.269Z,24.20
2022-09-23T10:50:05.020Z,24.43
2022-09-23T10:52:41.005Z,24.52
2022-09-23T10:55:18.167Z,24.56
2022-09-23T10:57:54.481Z,24.59
2022-09-23T11:00:23.557Z,24.62
2022-09-23T11:03:02.054Z,24.60
2022-09-23T11:05:36.132Z,24.57
2022-09-23T11:08:18.389Z,24.54
2022-09-23T11:10:57.501Z,24.56
2022-09-23T11:13:34.792Z,24.73
2022-09-23T11:16:07.028Z,25.80
2022-09-23T11:18:51.866Z,25.42
2022-09-23T11:21:34.672Z,25.17
2022-09-23T11:24:18.701Z,24.99
2022-09-23T11:26:52.288Z,24.91
2022-09-23T11:29:47.836Z,24.87
2022-09-23T11:32:27.633Z,24.81
2022-09-23T11:35:03.007Z,24.77
2022-09-23T11:37:33.102Z,24.76
2022-09-23T11:40:04.162Z,24.73
2022-09-23T11:42:34.239Z,24.70
2022-09-23T11:45:03.505Z,24.66
2022-09-23T11:47:39.466Z,24.62
2022-09-23T11:50:12.983Z,24.58
2022-09-23T11:52:42.639Z,24.60
2022-09-23T11:55:22.226Z,24.60
2022-09-23T11:57:52.549Z,24.59
2022-09-23T12:00:21.257Z,24.59
2022-09-23T12:03:04.015Z,24.57
2022-09-23T12:05:35.770Z,24.57
2022-09-23T12:08:07.650Z,24.55
2022-09-23T12:10:44.527Z,24.52
2022-09-23T12:13:18.069Z,24.52
2022-09-23T12:15:53.594Z,24.47
2022-09-23T12:18:44.079Z,24.43
2022-09-23T12:21:49.894Z,24.39
2022-09-23T12:24:27.906Z,24.34
2022-09-23T12:27:00.746Z,24.30
2022-09-23T12:29:29.888Z,24.28
2022-09-23T12:31:57.820Z,24.25
2022-09-23T12:34:28.955Z,24.23
2022-09-23T12:37:03.085Z,24.20
2022-09-23T12:39:31.897Z,24.18
2022-09-23T12:42:01.754Z,24.16
2022-09-23T12:44:34.553Z,24.14
2022-09-23T12:47:39.493Z,24.14
2022-09-23T12:50:44.502Z,24.15
2022-09-23T12:53:56.644Z,24.14
2022-09-23T12:56:26.497Z,24.10
2022-09-23T12:59:15.604Z,24.09
2022-09-23T13:01:43.668Z,24.06
2022-09-23T13:04:53.757Z,24.03
2022-09-23T13:07:24.909Z,24.03
2022-09-23T13:09:53.826Z,24.00
2022-09-23T13:12:24.773Z,24.00
2022-09-23T13:14:54.697Z,24.00
2022-09-23T13:17:27.332Z,23.98
2022-09-23T13:20:03.306Z,23.96
2022-09-23T13:23:04.129Z,23.95
2022-09-23T13:25:33.703Z,23.92
2022-09-23T13:28:02.526Z,23.91
2022-09-23T13:31:14.235Z,23.90
2022-09-23T13:33:44.223Z,23.87
2022-09-23T13:36:13.918Z,23.87
2022-09-23T13:38:42.186Z,23.85
2022-09-23T13:41:13.854Z,23.85
2022-09-23T13:43:42.940Z,23.83
2022-09-23T13:46:14.586Z,23.82
2022-09-23T13:48:42.743Z,23.80
2022-09-23T13:51:12.632Z,23.80
2022-09-23T13:53:40.557Z,23.82
2022-09-23T13:56:12.598Z,23.84
2022-09-23T13:58:40.519Z,23.85
2022-09-23T14:01:09.293Z,23.87
2022-09-23T14:03:39.305Z,23.87
2022-09-23T14:06:08.978Z,23.89
2022-09-23T14:08:36.978Z,23.87
2022-09-23T14:11:06.279Z,23.86
2022-09-23T14:13:42.820Z,23.85
2022-09-23T14:16:11.905Z,23.82
2022-09-23T14:18:41.749Z,23.84
2022-09-23T14:21:26.908Z,23.89
2022-09-23T14:23:54.783Z,23.93
2022-09-23T14:26:22.694Z,23.97
2022-09-23T14:28:50.618Z,24.00
2022-09-23T14:31:18.561Z,24.03
2022-09-23T14:33:47.878Z,24.08
2022-09-23T14:36:30.724Z,24.10
2022-09-23T14:39:03.732Z,24.03
2022-09-23T14:41:31.641Z,23.96
2022-09-23T14:44:00.525Z,23.91
2022-09-23T14:46:29.554Z,23.87
2022-09-23T14:49:05.603Z,23.83
2022-09-23T14:51:37.266Z,23.81
2022-09-23T14:54:32.409Z,23.80
2022-09-23T14:57:00.718Z,23.77
2022-09-23T14:59:29.955Z,23.77
2022-09-23T15:01:57.872Z,23.92
2022-09-23T15:04:35.434Z,24.09
2022-09-23T15:07:05.845Z,24.19
2022-09-23T15:09:34.628Z,24.26
2022-09-23T15:12:03.877Z,24.30
2022-09-23T15:14:39.848Z,24.32
2022-09-23T15:17:19.919Z,24.36
2022-09-23T15:19:52.611Z,24.38
2022-09-23T15:22:20.627Z,24.40
2022-09-23T15:24:48.696Z,24.41
2022-09-23T15:27:29.576Z,24.35
2022-09-23T15:30:02.831Z,24.27
2022-09-23T15:32:30.799Z,24.27
2022-09-23T15:35:00.070Z,24.22
2022-09-23T15:37:29.275Z,24.18
2022-09-23T15:39:59.694Z,24.16
2022-09-23T15:42:29.625Z,24.11
2022-09-23T15:44:59.311Z,24.07
2022-09-23T15:47:27.369Z,24.03
2022-09-23T15:49:55.255Z,24.00
2022-09-23T15:52:24.647Z,23.96
2022-09-23T15:54:53.552Z,23.92
2022-09-23T15:57:22.342Z,23.90
2022-09-23T15:59:50.278Z,23.88
2022-09-23T16:02:21.202Z,23.85
2022-09-23T16:04:50.337Z,23.84
2022-09-23T16:07:19.910Z,23.81
2022-09-23T16:09:49.206Z,23.80
2022-09-23T16:12:17.200Z,23.78
2022-09-23T16:14:45.171Z,23.76
2022-09-23T16:17:14.334Z,23.74
2022-09-23T16:19:42.310Z,23.72
2022-09-23T16:22:11.055Z,23.70
2022-09-23T16:24:39.072Z,23.68
2022-09-23T16:27:09.409Z,23.65
2022-09-23T16:29:37.379Z,23.66
2022-09-23T16:32:05.424Z,23.63
2022-09-23T16:34:34.809Z,23.61
2022-09-23T16:37:03.803Z,23.60
2022-09-23T16:39:31.752Z,23.58
2022-09-23T16:41:59.652Z,23.56
2022-09-23T16:44:29.927Z,23.56
2022-09-23T16:46:57.841Z,23.54
2022-09-23T16:49:26.022Z,23.52
2022-09-23T16:51:53.916Z,23.51
2022-09-23T16:54:23.859Z,23.49
2022-09-23T16:56:52.237Z,23.48
2022-09-23T16:59:20.112Z,23.47
2022-09-23T17:02:07.398Z,23.45
2022-09-23T17:04:35.371Z,23.44
2022-09-23T17:07:03.298Z,23.44
2022-09-23T17:09:31.297Z,23.43
2022-09-23T17:12:01.126Z,23.42
2022-09-23T17:14:31.105Z,23.43
2022-09-23T17:17:00.631Z,23.43
2022-09-23T17:19:28.732Z,23.42
2022-09-23T17:21:56.690Z,23.41
2022-09-23T17:24:24.867Z,23.41
2022-09-23T17:26:53.472Z,23.40
2022-09-23T17:29:21.545Z,23.38
2022-09-23T17:31:49.708Z,23.36
2022-09-23T17:34:19.728Z,23.36
2022-09-23T17:36:47.650Z,23.36
2022-09-23T17:39:16.607Z,23.35
2022-09-23T17:41:45.454Z,23.34
2022-09-23T17:44:15.488Z,23.34
2022-09-23T17:46:43.666Z,23.33
2022-09-23T17:49:12.230Z,23.32
2022-09-23T17:51:42.221Z,23.31
2022-09-23T17:54:11.117Z,23.31
2022-09-23T17:56:39.076Z,23.31
2022-09-23T17:59:07.032Z,23.31
2022-09-23T18:01:35.588Z,23.29
2022-09-23T18:04:05.635Z,23.30
2022-09-23T18:06:35.515Z,23.28
2022-09-23T18:09:05.925Z,23.28
2022-09-23T18:11:34.807Z,23.28
2022-09-23T18:14:03.478Z,23.29
2022-09-23T18:16:32.450Z,23.29
2022-09-23T18:19:01.270Z,23.30
2022-09-23T18:21:30.101Z,23.29
2022-09-23T18:24:15.669Z,23.30
2022-09-23T18:26:49.781Z,23.29
2022-09-23T18:29:19.618Z,23.29
2022-09-23T18:31:48.059Z,23.29
2022-09-23T18:34:17.133Z,23.30
2022-09-23T18:36:48.177Z,23.28
2022-09-23T18:39:16.140Z,23.26
2022-09-23T18:41:44.035Z,23.26
2022-09-23T18:44:14.442Z,23.27
2022-09-23T18:46:42.819Z,23.26
2022-09-23T18:49:28.340Z,23.25
2022-09-23T18:51:59.791Z,23.24
2022-09-23T18:54:29.460Z,23.23
2022-09-23T18:56:59.130Z,23.23
2022-09-23T18:59:29.086Z,23.21
2022-09-23T19:01:57.387Z,23.21
2022-09-23T19:04:26.145Z,23.21
2022-09-23T19:06:56.282Z,23.20
2022-09-23T19:09:24.441Z,23.21
2022-09-23T19:11:52.559Z,23.20
2022-09-23T19:14:20.616Z,23.20
2022-09-23T19:16:50.639Z,23.19
2022-09-23T19:19:18.554Z,23.20
2022-09-23T19:21:46.522Z,23.20
2022-09-23T19:24:15.963Z,23.20
2022-09-23T19:26:44.393Z,23.20
2022-09-23T19:29:14.520Z,23.21
2022-09-23T19:31:42.517Z,23.21
2022-09-23T19:34:14.639Z,23.21
2022-09-23T19:36:43.411Z,23.21
2022-09-23T19:39:15.847Z,23.21
2022-09-23T19:41:43.809Z,23.18
2022-09-23T19:44:11.854Z,23.20
2022-09-23T19:46:42.877Z,23.20
2022-09-23T19:49:11.117Z,23.19
2022-09-23T19:51:40.726Z,23.18
2022-09-23T19:54:09.166Z,23.18
2022-09-23T19:56:38.606Z,23.18
2022-09-23T19:59:09.186Z,23.16
2022-09-23T20:01:37.554Z,23.17
2022-09-23T20:04:05.675Z,23.15
2022-09-23T20:06:34.292Z,23.16
2022-09-23T20:09:03.657Z,23.15
2022-09-23T20:11:32.482Z,23.14
2022-09-23T20:14:02.238Z,23.13
2022-09-23T20:16:32.092Z,23.14
2022-09-23T20:19:00.761Z,23.13
2022-09-23T20:21:29.379Z,23.12
2022-09-23T20:23:57.475Z,23.11
2022-09-23T20:26:44.304Z,23.12
2022-09-23T20:29:12.329Z,23.12
2022-09-23T20:31:40.445Z,23.11
2022-09-23T20:34:10.774Z,23.10
2022-09-23T20:36:39.543Z,23.11
2022-09-23T20:39:07.554Z,23.11
2022-09-23T20:41:37.957Z,23.10
2022-09-23T20:44:07.532Z,23.09
2022-09-23T20:46:35.944Z,23.09
2022-09-23T20:49:04.304Z,23.08
2022-09-23T20:51:33.270Z,23.08
2022-09-23T20:54:01.719Z,23.06
2022-09-23T20:56:29.690Z,23.06
2022-09-23T20:59:01.757Z,23.03
2022-09-23T21:01:29.795Z,23.02
2022-09-23T21:03:57.751Z,23.00
2022-09-23T21:06:26.338Z,23.00
2022-09-23T21:08:56.294Z,23.00
2022-09-23T21:11:26.395Z,23.00
2022-09-23T21:13:54.716Z,22.99
2022-09-23T21:16:24.643Z,22.99
2022-09-23T21:18:52.635Z,22.98
2022-09-23T21:21:22.250Z,22.96
2022-09-23T21:23:50.350Z,22.95
2022-09-23T21:26:19.807Z,22.95
2022-09-23T21:28:48.417Z,22.93
2022-09-23T21:31:23.001Z,22.94
2022-09-23T21:33:54.892Z,22.95
2022-09-23T21:36:24.833Z,22.95
2022-09-23T21:38:53.032Z,22.95
2022-09-23T21:41:21.020Z,22.94
2022-09-23T21:43:49.586Z,22.94
2022-09-23T21:46:20.190Z,22.95
2022-09-23T21:48:49.892Z,22.94
2022-09-23T21:51:20.806Z,22.94
2022-09-23T21:53:49.086Z,22.92
2022-09-23T21:56:21.013Z,22.92
2022-09-23T21:58:49.303Z,22.92
2022-09-23T22:01:18.817Z,22.90
2022-09-23T22:03:50.901Z,22.89
2022-09-23T22:06:22.619Z,22.87
2022-09-23T22:08:51.413Z,22.86
2022-09-23T22:11:37.451Z,22.86
2022-09-23T22:14:07.218Z,22.85
2022-09-23T22:16:35.995Z,22.84
2022-09-23T22:19:06.930Z,22.81
2022-09-23T22:21:40.121Z,22.83
2022-09-23T22:24:09.187Z,22.81
2022-09-23T22:26:37.910Z,22.81
2022-09-23T22:29:23.350Z,22.82
2022-09-23T22:32:08.642Z,22.79
2022-09-23T22:34:49.603Z,22.80
2022-09-23T22:37:20.992Z,22.78
2022-09-23T22:39:48.928Z,22.79
2022-09-23T22:42:16.999Z,22.77
2022-09-23T22:44:44.932Z,22.76
2022-09-23T22:47:12.832Z,22.76
2022-09-23T22:49:40.815Z,22.75
2022-09-23T22:52:09.211Z,22.74
2022-09-23T22:54:38.623Z,22.73
2022-09-23T23:00:03.449Z,22.72
2022-09-23T23:02:31.521Z,22.70
2022-09-23T23:05:00.931Z,22.69
2022-09-23T23:07:28.942Z,22.69
2022-09-23T23:09:58.208Z,22.70
2022-09-23T23:12:26.294Z,22.70
2022-09-23T23:14:54.854Z,22.71
2022-09-23T23:17:22.761Z,22.71
2022-09-23T23:19:52.648Z,22.69
2022-09-23T23:22:20.562Z,22.70
2022-09-23T23:24:48.490Z,22.69
2022-09-23T23:27:17.756Z,22.69
2022-09-23T23:29:45.760Z,22.69
2022-09-23T23:32:13.892Z,22.70
2022-09-23T23:34:41.848Z,22.68
2022-09-23T23:37:09.834Z,22.68
2022-09-23T23:39:37.712Z,22.68
2022-09-23T23:42:06.010Z,22.68
2022-09-23T23:44:35.328Z,22.68
2022-09-23T23:47:03.402Z,22.67
2022-09-23T23:49:31.425Z,22.66
2022-09-23T23:51:59.360Z,22.67
2022-09-23T23:54:27.319Z,22.66
2022-09-23T23:56:55.186Z,22.65
2022-09-23T23:59:23.129Z,22.65
